createdAt,value
2017-11-24T00:00:17.413Z,58.07
2017-11-24T00:02:52.231Z,58.09
2017-11-24T00:05:27.327Z,58.07
2017-11-24T00:08:01.019Z,57.90
2017-11-24T00:10:33.208Z,58.34
2017-11-24T00:13:05.529Z,58.50
2017-11-24T00:15:39.311Z,58.24
2017-11-24T00:18:13.203Z,58.11
2017-11-24T00:20:45.902Z,58.14
2017-11-24T00:23:19.383Z,57.78
2017-11-24T00:25:54.635Z,57.96
2017-11-24T00:28:27.836Z,57.83
2017-11-24T00:31:03.770Z,57.94
2017-11-24T00:33:34.847Z,57.76
2017-11-24T00:36:07.819Z,57.66
2017-11-24T00:38:40.034Z,57.57
2017-11-24T00:41:11.836Z,57.44
2017-11-24T00:43:43.941Z,57.62
2017-11-24T00:46:18.441Z,58.28
2017-11-24T00:48:57.377Z,58.40
2017-11-24T00:51:28.390Z,58.34
2017-11-24T00:54:02.258Z,58.54
2017-11-24T00:56:37.886Z,58.49
2017-11-24T00:59:12.049Z,58.51
2017-11-24T01:01:44.564Z,58.84
2017-11-24T01:04:16.882Z,59.21
2017-11-24T01:06:49.063Z,58.98
2017-11-24T01:09:21.951Z,58.53
2017-11-24T01:11:53.961Z,58.79
2017-11-24T01:14:26.254Z,58.44
2017-11-24T01:17:00.091Z,58.55
2017-11-24T01:19:32.751Z,59.19
2017-11-24T01:22:04.454Z,58.88
2017-11-24T01:24:37.055Z,58.52
2017-11-24T01:27:08.960Z,58.38
2017-11-24T01:29:40.875Z,58.09
2017-11-24T01:32:14.356Z,58.07
2017-11-24T01:34:46.960Z,58.02
2017-11-24T01:37:20.855Z,58.35
2017-11-24T01:39:53.148Z,58.54
2017-11-24T01:42:25.056Z,58.94
2017-11-24T01:44:57.267Z,60.36
2017-11-24T01:47:30.358Z,62.33
2017-11-24T01:50:02.260Z,62.75
2017-11-24T01:52:34.953Z,64.35
2017-11-24T01:55:07.767Z,64.12
2017-11-24T01:57:41.460Z,64.47
2017-11-24T02:00:16.757Z,64.38
2017-11-24T02:02:49.697Z,64.67
2017-11-24T02:05:23.554Z,64.27
2017-11-24T02:08:02.366Z,65.19
2017-11-24T02:10:36.561Z,65.04
2017-11-24T02:13:09.163Z,64.69
2017-11-24T02:15:41.164Z,64.87
2017-11-24T02:18:13.285Z,65.79
2017-11-24T02:20:46.204Z,65.98
2017-11-24T02:23:18.297Z,68.12
2017-11-24T02:25:50.195Z,67.83
2017-11-24T02:28:27.799Z,67.93
2017-11-24T02:31:00.598Z,67.22
2017-11-24T02:33:32.691Z,67.49
2017-11-24T02:36:05.096Z,67.14
2017-11-24T02:38:42.101Z,67.23
2017-11-24T02:41:15.014Z,67.12
2017-11-24T02:43:47.715Z,67.22
2017-11-24T02:46:20.312Z,68.20
2017-11-24T02:48:52.504Z,67.76
2017-11-24T02:51:24.809Z,68.14
2017-11-24T02:53:58.705Z,68.14
2017-11-24T02:56:33.198Z,68.31
2017-11-24T02:59:05.905Z,69.05
2017-11-24T03:01:38.100Z,69.26
2017-11-24T03:04:10.846Z,67.96
2017-11-24T03:06:43.611Z,68.32
2017-11-24T03:09:17.197Z,68.98
2017-11-24T03:11:49.598Z,69.84
2017-11-24T03:14:23.200Z,68.77
2017-11-24T03:16:58.197Z,69.38
2017-11-24T03:19:30.102Z,68.54
2017-11-24T03:22:02.208Z,68.16
2017-11-24T03:24:35.012Z,67.81
2017-11-24T03:27:07.190Z,67.61
2017-11-24T03:29:39.095Z,67.59
2017-11-24T03:32:11.389Z,68.83
2017-11-24T03:34:43.281Z,68.72
2017-11-24T03:37:15.496Z,70.32
2017-11-24T03:39:47.484Z,72.26
2017-11-24T03:42:19.489Z,70.89
2017-11-24T03:44:55.120Z,70.71
2017-11-24T03:47:28.996Z,70.11
2017-11-24T03:50:01.195Z,70.03
2017-11-24T03:52:33.187Z,70.63
2017-11-24T03:55:06.198Z,70.72
2017-11-24T03:57:38.100Z,71.69
2017-11-24T04:00:14.933Z,72.37
2017-11-24T04:02:47.825Z,72.46
2017-11-24T04:05:19.740Z,72.92
2017-11-24T04:07:51.638Z,73.05
2017-11-24T04:10:24.337Z,73.10
2017-11-24T04:12:58.140Z,73.00
2017-11-24T04:15:31.051Z,72.52
2017-11-24T04:18:03.166Z,72.69
2017-11-24T04:20:35.253Z,72.21
2017-11-24T04:23:10.168Z,71.76
2017-11-24T04:25:42.172Z,71.79
2017-11-24T04:28:14.773Z,72.42
2017-11-24T04:30:47.457Z,73.51
2017-11-24T04:33:21.651Z,73.67
2017-11-24T04:35:54.044Z,72.67
2017-11-24T04:38:27.342Z,72.15
2017-11-24T04:40:59.254Z,72.97
2017-11-24T04:43:32.368Z,72.43
2017-11-24T04:46:05.137Z,71.99
2017-11-24T04:48:37.349Z,71.29
2017-11-24T04:51:10.041Z,71.25
2017-11-24T04:53:42.936Z,71.23
2017-11-24T04:56:14.838Z,71.78
2017-11-24T04:58:47.546Z,72.92
2017-11-24T05:01:20.727Z,73.07
2017-11-24T05:03:52.958Z,72.93
2017-11-24T05:06:25.133Z,74.17
2017-11-24T05:08:58.750Z,73.74
2017-11-24T05:11:31.438Z,73.12
2017-11-24T05:14:03.346Z,72.54
2017-11-24T05:16:35.821Z,72.15
2017-11-24T05:19:07.712Z,71.66
2017-11-24T05:21:40.117Z,71.08
2017-11-24T05:24:12.112Z,71.29
2017-11-24T05:26:46.483Z,71.76
2017-11-24T05:29:18.627Z,72.09
2017-11-24T05:31:51.520Z,71.88
2017-11-24T05:34:24.912Z,71.78
2017-11-24T05:37:07.328Z,72.09
2017-11-24T05:39:41.028Z,71.80
2017-11-24T05:42:13.442Z,72.29
2017-11-24T05:44:46.248Z,72.52
2017-11-24T05:47:18.861Z,73.01
2017-11-24T05:50:03.916Z,73.53
2017-11-24T05:52:36.169Z,73.29
2017-11-24T05:55:08.974Z,73.26
2017-11-24T05:57:41.679Z,73.02
2017-11-24T06:00:17.792Z,73.29
2017-11-24T06:02:50.220Z,73.23
2017-11-24T06:05:32.094Z,73.33
2017-11-24T06:08:05.597Z,73.83
2017-11-24T06:10:37.726Z,73.47
2017-11-24T06:13:10.898Z,72.93
2017-11-24T06:15:43.794Z,72.88
2017-11-24T06:18:17.031Z,73.02
2017-11-24T06:20:50.684Z,72.75
2017-11-24T06:23:28.580Z,72.52
2017-11-24T06:26:00.698Z,72.75
2017-11-24T06:28:34.978Z,72.29
2017-11-24T06:31:08.592Z,72.54
2017-11-24T06:33:41.008Z,71.95
2017-11-24T06:36:13.807Z,71.58
2017-11-24T06:38:47.274Z,71.98
2017-11-24T06:41:19.973Z,71.72
2017-11-24T06:43:53.476Z,71.72
2017-11-24T06:46:28.677Z,71.94
2017-11-24T06:49:08.972Z,71.61
2017-11-24T06:51:42.374Z,72.03
2017-11-24T06:54:14.417Z,72.84
2017-11-24T06:56:46.971Z,71.83
2017-11-24T06:59:19.188Z,71.73
2017-11-24T07:01:52.986Z,72.10
2017-11-24T07:04:27.677Z,72.29
2017-11-24T07:07:04.094Z,72.57
2017-11-24T07:09:40.086Z,72.72
2017-11-24T07:12:18.182Z,71.86
2017-11-24T07:14:56.475Z,72.04
2017-11-24T07:17:29.043Z,72.23
2017-11-24T07:20:04.604Z,71.86
2017-11-24T07:22:37.919Z,71.61
2017-11-24T07:25:09.917Z,71.38
2017-11-24T07:27:41.929Z,71.71
2017-11-24T07:30:18.430Z,71.72
2017-11-24T07:32:58.627Z,72.05
2017-11-24T07:35:30.829Z,71.66
2017-11-24T07:38:04.138Z,71.59
2017-11-24T07:40:37.339Z,71.32
2017-11-24T07:43:18.970Z,71.18
2017-11-24T07:45:56.037Z,70.99
2017-11-24T07:48:28.040Z,71.66
2017-11-24T07:51:02.201Z,71.67
2017-11-24T07:53:45.116Z,70.74
2017-11-24T07:56:20.544Z,70.74
2017-11-24T07:58:53.757Z,70.37
2017-11-24T08:01:28.040Z,70.81
2017-11-24T08:06:44.050Z,71.51
2017-11-24T08:09:18.841Z,72.41
2017-11-24T08:11:50.942Z,72.12
2017-11-24T08:14:23.336Z,72.46
2017-11-24T08:16:56.835Z,72.66
2017-11-24T08:19:36.828Z,71.86
2017-11-24T08:22:11.332Z,71.40
2017-11-24T08:24:45.338Z,71.97
2017-11-24T08:27:18.933Z,71.47
2017-11-24T08:29:51.528Z,71.57
2017-11-24T08:32:24.719Z,71.49
2017-11-24T08:34:58.897Z,70.93
2017-11-24T08:37:32.004Z,71.04
2017-11-24T08:40:12.710Z,70.79
2017-11-24T08:42:45.103Z,71.23
2017-11-24T08:45:18.603Z,70.50
2017-11-24T08:49:56.111Z,69.65
2017-11-24T08:52:28.102Z,70.56
2017-11-24T08:55:01.925Z,70.68
2017-11-24T08:57:33.904Z,70.30
2017-11-24T09:00:10.391Z,70.11
2017-11-24T09:02:55.996Z,69.40
2017-11-24T09:05:28.710Z,68.53
2017-11-24T09:08:02.933Z,68.87
2017-11-24T09:10:36.824Z,69.00
2017-11-24T09:13:09.960Z,68.80
2017-11-24T09:15:43.938Z,68.21
2017-11-24T09:18:17.576Z,68.07
2017-11-24T09:20:50.347Z,67.99
2017-11-24T09:23:23.183Z,67.24
2017-11-24T09:25:55.259Z,67.22
2017-11-24T09:28:35.971Z,66.31
2017-11-24T09:31:22.388Z,66.94
2017-11-24T09:33:56.867Z,66.87
2017-11-24T09:36:29.776Z,66.97
2017-11-24T09:39:02.784Z,66.51
2017-11-24T09:41:35.958Z,66.43
2017-11-24T09:44:06.930Z,66.55
2017-11-24T09:46:39.345Z,67.00
2017-11-24T09:49:11.840Z,66.89
2017-11-24T09:51:43.851Z,67.11
2017-11-24T09:54:15.849Z,67.86
2017-11-24T09:56:49.465Z,68.30
2017-11-24T09:59:31.883Z,67.53
2017-11-24T10:02:06.136Z,67.05
2017-11-24T10:04:39.857Z,67.06
2017-11-24T10:07:13.645Z,67.28
2017-11-24T10:09:48.444Z,66.63
2017-11-24T10:12:19.179Z,67.00
2017-11-24T10:14:53.461Z,66.63
2017-11-24T10:17:28.376Z,67.46
2017-11-24T10:20:04.575Z,66.91
2017-11-24T10:22:44.310Z,66.77
2017-11-24T10:25:17.285Z,65.93
2017-11-24T10:27:52.020Z,65.02
2017-11-24T10:30:27.757Z,65.43
2017-11-24T10:33:01.059Z,64.21
2017-11-24T10:35:34.941Z,64.21
2017-11-24T10:38:07.911Z,63.99
2017-11-24T10:40:45.829Z,64.01
2017-11-24T10:43:19.213Z,63.56
2017-11-24T10:45:52.421Z,63.81
2017-11-24T10:48:26.842Z,64.57
2017-11-24T10:51:04.410Z,64.67
2017-11-24T10:53:37.713Z,64.98
2017-11-24T10:56:11.106Z,64.46
2017-11-24T10:58:43.201Z,65.08
2017-11-24T11:01:16.102Z,65.72
2017-11-24T11:03:50.510Z,66.23
2017-11-24T11:06:26.457Z,66.96
2017-11-24T11:08:59.878Z,66.68
2017-11-24T11:11:36.364Z,66.48
2017-11-24T11:14:09.821Z,66.62
2017-11-24T11:16:56.497Z,67.03
2017-11-24T11:19:33.417Z,66.57
2017-11-24T11:22:07.002Z,66.21
2017-11-24T11:24:40.908Z,65.80
2017-11-24T11:27:16.279Z,66.32
2017-11-24T11:29:49.784Z,65.74
2017-11-24T11:32:26.745Z,65.31
2017-11-24T11:35:03.692Z,64.82
2017-11-24T11:37:38.601Z,65.59
2017-11-24T11:40:11.766Z,65.56
2017-11-24T11:42:43.817Z,66.42
2017-11-24T11:45:20.985Z,66.57
2017-11-24T11:47:54.968Z,66.27
2017-11-24T11:53:11.333Z,64.85
2017-11-24T11:55:45.718Z,64.73
2017-11-24T11:58:21.107Z,64.44
2017-11-24T12:00:56.769Z,64.34
2017-11-24T12:03:31.234Z,63.79
2017-11-24T12:06:07.443Z,64.09
2017-11-24T12:08:41.387Z,64.21
2017-11-24T12:14:07.369Z,64.98
2017-11-24T12:16:50.485Z,64.80
2017-11-24T12:19:25.183Z,65.07
2017-11-24T12:22:00.284Z,64.97
2017-11-24T12:24:38.765Z,65.33
2017-11-24T12:27:12.087Z,65.18
2017-11-24T12:29:46.992Z,64.43
2017-11-24T12:32:20.866Z,65.58
2017-11-24T12:34:58.881Z,66.60
2017-11-24T12:37:35.693Z,66.30
2017-11-24T12:40:17.883Z,67.06
2017-11-24T12:42:57.286Z,68.19
2017-11-24T12:45:35.185Z,68.24
2017-11-24T12:53:11.334Z,68.86
2017-11-24T12:55:45.751Z,70.17
2017-11-24T12:58:23.105Z,68.71
2017-11-24T13:01:28.710Z,68.37
2017-11-24T13:04:15.407Z,67.74
2017-11-24T13:06:59.924Z,66.75
2017-11-24T13:09:44.207Z,66.79
2017-11-24T13:12:23.159Z,66.58
2017-11-24T13:15:07.387Z,66.40
2017-11-24T13:17:49.697Z,66.17
2017-11-24T13:20:31.604Z,65.68
2017-11-24T13:23:14.042Z,66.05
2017-11-24T13:26:27.695Z,65.42
2017-11-24T13:29:12.552Z,65.59
2017-11-24T13:32:16.118Z,64.94
2017-11-24T13:34:54.583Z,64.98
2017-11-24T13:37:37.474Z,65.09
2017-11-24T13:40:15.788Z,64.91
2017-11-24T13:42:56.191Z,65.02
2017-11-24T13:45:46.155Z,64.99
2017-11-24T13:48:37.038Z,64.75
2017-11-24T13:51:18.898Z,64.66
2017-11-24T13:56:59.700Z,64.37
2017-11-24T13:59:38.238Z,63.45
2017-11-24T14:02:18.567Z,63.79
2017-11-24T14:05:01.887Z,64.30
2017-11-24T14:07:41.616Z,64.42
2017-11-24T14:10:28.695Z,64.96
2017-11-24T14:13:08.084Z,64.66
2017-11-24T14:15:44.084Z,64.34
2017-11-24T14:21:15.719Z,65.12
2017-11-24T14:23:59.136Z,64.80
2017-11-24T14:26:50.070Z,64.99
2017-11-24T14:29:46.343Z,65.45
2017-11-24T14:32:28.278Z,64.84
2017-11-24T14:35:10.650Z,64.68
2017-11-24T14:37:50.024Z,64.65
2017-11-24T14:40:37.383Z,64.30
2017-11-24T14:43:28.720Z,64.31
2017-11-24T14:46:17.777Z,64.38
2017-11-24T14:49:15.500Z,64.58
2017-11-24T14:52:04.562Z,64.76
2017-11-24T14:54:50.949Z,64.47
2017-11-24T14:57:35.214Z,64.72
2017-11-24T15:00:26.904Z,64.02
2017-11-24T15:03:09.560Z,63.93
2017-11-24T15:05:52.812Z,63.64
2017-11-24T15:08:44.497Z,64.13
2017-11-24T15:11:24.496Z,63.78
2017-11-24T15:16:58.314Z,63.35
2017-11-24T15:19:39.658Z,63.12
2017-11-24T15:22:29.651Z,63.29
2017-11-24T15:25:13.076Z,63.46
2017-11-24T15:28:05.716Z,65.17
2017-11-24T15:30:49.631Z,64.71
2017-11-24T15:33:38.964Z,64.51
2017-11-24T15:36:20.322Z,64.16
2017-11-24T15:39:22.283Z,64.34
2017-11-24T15:47:56.803Z,64.32
2017-11-24T15:50:45.100Z,64.40
2017-11-24T15:53:31.474Z,64.39
2017-11-24T15:56:17.591Z,64.79
2017-11-24T15:59:05.507Z,65.44
2017-11-24T16:01:50.597Z,66.00
2017-11-24T16:04:36.028Z,66.93
2017-11-24T16:07:34.927Z,67.98
2017-11-24T16:10:19.378Z,68.04
2017-11-24T16:13:11.491Z,67.14
2017-11-24T16:16:03.578Z,66.49
2017-11-24T16:18:41.062Z,66.22
2017-11-24T16:21:24.876Z,66.06
2017-11-24T16:26:56.770Z,67.15
2017-11-24T16:29:40.103Z,67.67
2017-11-24T16:32:21.300Z,68.02
2017-11-24T16:40:55.864Z,66.88
2017-11-24T16:43:36.703Z,66.96
2017-11-24T16:46:20.058Z,67.67
2017-11-24T16:49:06.516Z,66.87
2017-11-24T16:51:47.520Z,67.30
2017-11-24T16:54:35.234Z,67.90
2017-11-24T16:57:22.346Z,69.10
2017-11-24T17:00:16.174Z,68.36
2017-11-24T17:03:05.377Z,69.29
2017-11-24T17:05:46.867Z,70.73
2017-11-24T17:08:33.403Z,70.37
2017-11-24T17:11:18.358Z,70.75
2017-11-24T17:14:02.060Z,70.65
2017-11-24T17:16:55.217Z,70.88
2017-11-24T17:19:40.463Z,70.05
2017-11-24T17:22:21.651Z,69.95
2017-11-24T17:25:26.048Z,70.29
2017-11-24T17:28:24.083Z,69.69
2017-11-24T17:31:09.764Z,69.92
2017-11-24T17:34:01.968Z,70.26
2017-11-24T17:36:44.154Z,70.87
2017-11-24T17:39:28.543Z,69.82
2017-11-24T17:45:23.546Z,70.65
2017-11-24T17:50:52.287Z,72.17
2017-11-24T17:53:34.853Z,70.90
2017-11-24T17:56:23.070Z,70.75
2017-11-24T17:59:15.777Z,69.76
2017-11-24T18:02:17.035Z,68.99
2017-11-24T18:05:17.171Z,71.20
2017-11-24T18:10:59.836Z,73.10
2017-11-24T18:13:44.034Z,73.33
2017-11-24T18:16:23.142Z,73.95
2017-11-24T18:19:07.337Z,73.28
2017-11-24T18:21:47.847Z,74.00
2017-11-24T18:24:27.116Z,73.45
2017-11-24T18:29:55.615Z,71.98
2017-11-24T18:32:40.966Z,71.13
2017-11-24T18:38:21.657Z,70.55
2017-11-24T18:41:14.411Z,69.90
2017-11-24T18:44:12.207Z,69.12
2017-11-24T18:50:00.928Z,70.16
2017-11-24T18:52:45.087Z,69.73
2017-11-24T18:55:32.116Z,69.31
2017-11-24T18:58:28.905Z,68.90
2017-11-24T19:01:09.298Z,68.59
2017-11-24T19:03:52.204Z,68.00
2017-11-24T19:06:47.466Z,67.98
2017-11-24T19:12:21.672Z,68.29
2017-11-24T19:15:12.845Z,69.07
2017-11-24T19:17:58.809Z,68.73
2017-11-24T19:20:43.517Z,68.43
2017-11-24T19:26:27.941Z,67.46
2017-11-24T19:29:12.790Z,67.65
2017-11-24T19:31:53.796Z,67.63
2017-11-24T19:34:33.737Z,67.62
2017-11-24T19:37:16.528Z,68.66
2017-11-24T19:39:54.132Z,68.34
2017-11-24T19:42:32.901Z,68.68
2017-11-24T19:45:27.196Z,68.25
2017-11-24T19:50:35.076Z,67.86
2017-11-24T19:53:14.642Z,68.15
2017-11-24T19:56:03.901Z,67.81
2017-11-24T19:58:49.167Z,67.70
2017-11-24T20:01:30.892Z,68.03
2017-11-24T20:04:16.968Z,67.19
2017-11-24T20:07:07.204Z,66.61
2017-11-24T20:09:50.856Z,67.10
2017-11-24T20:12:32.396Z,67.31
2017-11-24T20:15:21.492Z,67.97
2017-11-24T20:17:59.769Z,68.32
2017-11-24T20:20:44.802Z,68.20
2017-11-24T20:26:20.596Z,68.70
2017-11-24T20:28:58.132Z,68.97
2017-11-24T20:31:37.494Z,68.45
2017-11-24T20:34:18.229Z,68.34
2017-11-24T20:36:59.900Z,68.23
2017-11-24T20:39:43.801Z,68.41
2017-11-24T20:42:29.801Z,68.38
2017-11-24T20:45:30.602Z,68.25
2017-11-24T20:48:21.690Z,68.22
2017-11-24T20:51:25.002Z,68.48
2017-11-24T20:54:14.239Z,68.28
2017-11-24T20:56:52.718Z,68.25
2017-11-24T20:59:35.147Z,68.42
2017-11-24T21:02:20.626Z,68.90
2017-11-24T21:05:38.420Z,69.07
2017-11-24T21:08:21.743Z,69.41
2017-11-24T21:11:00.015Z,69.32
2017-11-24T21:13:42.413Z,69.10
2017-11-24T21:16:26.329Z,68.96
2017-11-24T21:19:08.008Z,68.99
2017-11-24T21:21:55.310Z,69.25
2017-11-24T21:24:37.140Z,68.83
2017-11-24T21:27:29.714Z,68.85
2017-11-24T21:30:15.613Z,68.75
2017-11-24T21:33:01.713Z,68.69
2017-11-24T21:35:45.622Z,69.36
2017-11-24T21:38:25.519Z,69.64
2017-11-24T21:41:02.207Z,70.11
2017-11-24T21:43:38.640Z,69.93
2017-11-24T21:46:14.740Z,69.95
2017-11-24T21:49:00.949Z,70.20
2017-11-24T21:51:43.080Z,69.73
2017-11-24T21:54:22.532Z,69.54
2017-11-24T21:56:59.267Z,69.33
2017-11-24T21:59:32.844Z,69.09
2017-11-24T22:02:08.431Z,69.33
2017-11-24T22:04:43.333Z,69.44
2017-11-24T22:07:25.146Z,69.20
2017-11-24T22:10:10.267Z,69.52
2017-11-24T22:12:53.031Z,69.39
2017-11-24T22:15:33.634Z,69.31
2017-11-24T22:18:11.057Z,69.45
2017-11-24T22:20:48.719Z,68.93
2017-11-24T22:23:25.715Z,68.93
2017-11-24T22:26:07.252Z,69.72
2017-11-24T22:28:58.244Z,69.58
2017-11-24T22:31:45.385Z,69.41
2017-11-24T22:34:27.951Z,69.43
2017-11-24T22:37:06.965Z,69.09
2017-11-24T22:39:46.652Z,68.94
2017-11-24T22:42:23.468Z,69.21
2017-11-24T22:45:00.878Z,69.19
2017-11-24T22:47:44.468Z,68.79
2017-11-24T22:50:21.478Z,68.76
2017-11-24T22:52:57.360Z,69.08
2017-11-24T22:55:35.031Z,69.22
2017-11-24T22:58:23.037Z,69.62
2017-11-24T23:01:03.271Z,69.98
2017-11-24T23:03:41.949Z,70.44
2017-11-24T23:06:19.742Z,70.56
2017-11-24T23:08:57.422Z,70.45
2017-11-24T23:11:37.010Z,69.82
2017-11-24T23:14:12.474Z,69.30
2017-11-24T23:16:48.658Z,68.92
2017-11-24T23:19:26.019Z,68.87
2017-11-24T23:22:01.098Z,68.89
2017-11-24T23:24:37.355Z,69.39
2017-11-24T23:27:15.793Z,68.91
2017-11-24T23:29:50.384Z,68.68
2017-11-24T23:32:25.500Z,68.41
2017-11-24T23:35:01.757Z,68.35
2017-11-24T23:37:35.651Z,68.17
2017-11-24T23:40:10.872Z,68.08
2017-11-24T23:42:42.942Z,68.02
2017-11-24T23:45:21.348Z,68.10
2017-11-24T23:47:54.344Z,68.17
2017-11-24T23:50:25.375Z,68.33
2017-11-24T23:52:59.530Z,68.30
2017-11-24T23:55:32.970Z,68.37
2017-11-24T23:58:05.456Z,68.64
